createdAt,value
2019-05-29T00:00:10.070Z,96062.23
2019-05-29T00:02:37.392Z,96066.72
2019-05-29T00:05:07.965Z,96072.03
2019-05-29T00:07:35.163Z,96074.75
2019-05-29T00:10:04.298Z,96081.78
2019-05-29T00:12:31.301Z,96077.28
2019-05-29T00:14:58.553Z,96078.43
2019-05-29T00:17:25.659Z,96078.61
2019-05-29T00:19:52.794Z,96075.70
2019-05-29T00:22:20.295Z,96076.08
2019-05-29T00:24:47.345Z,96082.53
2019-05-29T00:27:15.575Z,96085.86
2019-05-29T00:29:43.285Z,96088.59
2019-05-29T00:32:11.975Z,96088.02
2019-05-29T00:34:39.620Z,96094.07
2019-05-29T00:37:06.861Z,96096.22
2019-05-29T00:39:34.492Z,96106.39
2019-05-29T00:42:01.487Z,96104.82
2019-05-29T00:44:34.268Z,96108.72
2019-05-29T00:46:58.070Z,96119.09
2019-05-29T00:49:25.302Z,96115.16
2019-05-29T00:51:52.590Z,96122.19
2019-05-29T00:54:20.048Z,96125.71
2019-05-29T00:56:47.451Z,96121.41
2019-05-29T00:59:15.140Z,96118.27
2019-05-29T01:01:42.395Z,96130.17
2019-05-29T01:04:09.939Z,96130.00
2019-05-29T01:06:37.375Z,96129.80
2019-05-29T01:09:06.143Z,96130.75
2019-05-29T01:11:33.444Z,96138.36
2019-05-29T01:14:00.561Z,96136.98
2019-05-29T01:16:27.880Z,96141.50
2019-05-29T01:18:57.125Z,96143.45
2019-05-29T01:21:24.425Z,96141.88
2019-05-29T01:23:51.671Z,96150.09
2019-05-29T01:26:18.889Z,96149.68
2019-05-29T01:28:46.027Z,96148.48
2019-05-29T01:31:13.603Z,96158.27
2019-05-29T01:33:41.331Z,96154.91
2019-05-29T01:36:08.660Z,96159.19
2019-05-29T01:38:35.963Z,96161.92
2019-05-29T01:41:03.302Z,96164.05
2019-05-29T01:43:30.188Z,96172.83
2019-05-29T01:45:57.232Z,96181.63
2019-05-29T01:48:24.420Z,96183.98
2019-05-29T01:50:51.547Z,96179.05
2019-05-29T01:53:19.540Z,96182.16
2019-05-29T01:55:46.727Z,96185.06
2019-05-29T01:58:13.816Z,96187.22
2019-05-29T02:00:41.034Z,96192.11
2019-05-29T02:03:08.220Z,96192.89
2019-05-29T02:05:35.424Z,96193.89
2019-05-29T02:08:02.568Z,96200.73
2019-05-29T02:10:29.793Z,96211.09
2019-05-29T02:12:56.989Z,96209.52
2019-05-29T02:15:32.025Z,96211.46
2019-05-29T02:17:53.831Z,96215.36
2019-05-29T02:20:21.291Z,96217.52
2019-05-29T02:22:48.375Z,96217.89
2019-05-29T02:25:20.682Z,96219.05
2019-05-29T02:27:47.837Z,96219.63
2019-05-29T02:30:17.879Z,96216.11
2019-05-29T02:32:44.994Z,96228.41
2019-05-29T02:35:13.024Z,96230.53
2019-05-29T02:37:40.169Z,96231.52
2019-05-29T02:40:07.981Z,96235.41
2019-05-29T02:42:36.020Z,96240.09
2019-05-29T02:45:08.123Z,96252.40
2019-05-29T02:47:35.539Z,96255.72
2019-05-29T02:50:06.528Z,96251.61
2019-05-29T02:52:33.783Z,96255.72
2019-05-29T02:55:01.074Z,96260.02
2019-05-29T02:57:29.045Z,96259.81
2019-05-29T02:59:56.708Z,96258.24
2019-05-29T03:02:25.371Z,96267.61
2019-05-29T03:04:52.911Z,96267.61
2019-05-29T03:07:22.083Z,96272.87
2019-05-29T03:09:49.581Z,96279.50
2019-05-29T03:12:16.969Z,96279.29
2019-05-29T03:14:44.174Z,96284.38
2019-05-29T03:17:11.288Z,96286.11
2019-05-29T03:19:38.306Z,96284.91
2019-05-29T03:22:05.734Z,96282.17
2019-05-29T03:24:34.912Z,96282.75
2019-05-29T03:27:02.631Z,96282.75
2019-05-29T03:29:30.115Z,96287.06
2019-05-29T03:31:57.769Z,96292.11
2019-05-29T03:34:30.424Z,96297.59
2019-05-29T03:36:54.224Z,96304.47
2019-05-29T03:39:21.468Z,96311.14
2019-05-29T03:41:48.713Z,96313.10
2019-05-29T03:44:16.041Z,96322.30
2019-05-29T03:46:45.895Z,96326.03
2019-05-29T03:49:12.347Z,96330.34
2019-05-29T03:51:39.413Z,96326.63
2019-05-29T03:54:06.731Z,96331.52
2019-05-29T03:56:34.839Z,96338.36
2019-05-29T03:59:02.103Z,96346.98
2019-05-29T04:01:29.691Z,96345.83
2019-05-29T04:03:57.994Z,96346.82
2019-05-29T04:06:24.991Z,96351.88
2019-05-29T04:08:52.175Z,96351.25
2019-05-29T04:11:19.269Z,96356.14
2019-05-29T04:13:46.395Z,96361.81
2019-05-29T04:16:14.208Z,96364.55
2019-05-29T04:18:41.961Z,96378.44
2019-05-29T04:21:10.275Z,96382.95
2019-05-29T04:23:38.895Z,96383.54
2019-05-29T04:26:10.117Z,96388.64
2019-05-29T04:28:38.887Z,96392.33
2019-05-29T04:31:06.179Z,96396.80
2019-05-29T04:33:34.917Z,96402.64
2019-05-29T04:36:02.200Z,96403.83
2019-05-29T04:38:31.022Z,96409.88
2019-05-29T04:40:58.341Z,96412.98
2019-05-29T04:43:25.311Z,96414.13
2019-05-29T04:45:52.323Z,96424.23
2019-05-29T04:48:19.373Z,96420.48
2019-05-29T04:50:46.476Z,96423.55
2019-05-29T04:53:13.492Z,96431.92
2019-05-29T04:55:40.385Z,96444.01
2019-05-29T04:58:07.295Z,96442.41
2019-05-29T05:00:35.173Z,96454.44
2019-05-29T05:03:02.308Z,96453.05
2019-05-29T05:05:29.316Z,96455.14
2019-05-29T05:07:56.676Z,96462.34
2019-05-29T05:10:37.876Z,96470.73
2019-05-29T05:13:05.792Z,96475.13
2019-05-29T05:15:33.891Z,96479.93
2019-05-29T05:18:01.350Z,96486.52
2019-05-29T05:20:28.374Z,96482.14
2019-05-29T05:22:56.222Z,96491.67
2019-05-29T05:25:23.207Z,96495.34
2019-05-29T05:27:50.198Z,96493.34
2019-05-29T05:30:17.664Z,96512.46
2019-05-29T05:32:44.651Z,96513.25
2019-05-29T05:35:14.624Z,96518.14
2019-05-29T05:37:42.113Z,96526.34
2019-05-29T05:40:09.630Z,96528.34
2019-05-29T05:42:37.138Z,96536.33
2019-05-29T05:45:05.813Z,96535.18
2019-05-29T05:47:44.816Z,96539.48
2019-05-29T05:50:03.492Z,96542.65
2019-05-29T05:52:31.198Z,96547.36
2019-05-29T05:54:58.323Z,96550.09
2019-05-29T05:57:25.347Z,96549.38
2019-05-29T05:59:52.636Z,96552.47
2019-05-29T06:02:19.647Z,96560.09
2019-05-29T06:04:46.688Z,96557.57
2019-05-29T06:07:13.691Z,96561.45
2019-05-29T06:09:40.841Z,96564.19
2019-05-29T06:12:07.945Z,96575.62
2019-05-29T06:14:34.979Z,96584.22
2019-05-29T06:17:02.097Z,96579.91
2019-05-29T06:19:29.241Z,96584.94
2019-05-29T06:21:56.422Z,96592.34
2019-05-29T06:24:23.455Z,96589.39
2019-05-29T06:26:50.464Z,96596.59
2019-05-29T06:29:17.378Z,96595.39
2019-05-29T06:31:44.389Z,96601.44
2019-05-29T06:34:11.502Z,96603.16
2019-05-29T06:36:39.633Z,96610.92
2019-05-29T06:39:07.106Z,96616.97
2019-05-29T06:41:34.137Z,96619.13
2019-05-29T06:44:01.384Z,96620.92
2019-05-29T06:46:28.653Z,96620.12
2019-05-29T06:49:00.149Z,96632.06
2019-05-29T06:51:24.598Z,96641.27
2019-05-29T06:53:51.825Z,96645.19
2019-05-29T06:56:18.770Z,96649.94
2019-05-29T06:58:45.663Z,96647.42
2019-05-29T07:01:12.698Z,96653.46
2019-05-29T07:03:39.809Z,96661.66
2019-05-29T07:06:07.143Z,96663.82
2019-05-29T07:08:41.979Z,96670.87
2019-05-29T07:11:03.362Z,96679.06
2019-05-29T07:13:34.479Z,96681.58
2019-05-29T07:15:59.378Z,96682.38
2019-05-29T07:18:29.358Z,96690.56
2019-05-29T07:20:56.372Z,96695.67
2019-05-29T07:23:23.634Z,96697.80
2019-05-29T07:25:50.566Z,96697.80
2019-05-29T07:28:17.796Z,96702.30
2019-05-29T07:30:53.844Z,96710.05
2019-05-29T07:33:13.936Z,96707.82
2019-05-29T07:35:41.407Z,96710.36
2019-05-29T07:38:08.478Z,96711.56
2019-05-29T07:40:36.071Z,96726.45
2019-05-29T07:43:03.341Z,96726.88
2019-05-29T07:45:30.274Z,96725.73
2019-05-29T07:47:57.487Z,96733.77
2019-05-29T07:50:24.644Z,96725.13
2019-05-29T07:52:52.202Z,96733.14
2019-05-29T07:55:19.608Z,96742.70
2019-05-29T07:57:47.109Z,96749.67
2019-05-29T08:00:16.175Z,96750.61
2019-05-29T08:02:49.389Z,96751.54
2019-05-29T08:05:19.151Z,96753.30
2019-05-29T08:07:47.442Z,96757.74
2019-05-29T08:10:15.377Z,96766.30
2019-05-29T08:12:48.442Z,96772.34
2019-05-29T08:15:12.860Z,96777.36
2019-05-29T08:17:40.054Z,96782.83
2019-05-29T08:20:08.095Z,96773.48
2019-05-29T08:22:35.364Z,96783.05
2019-05-29T08:25:05.766Z,96789.08
2019-05-29T08:27:32.821Z,96791.59
2019-05-29T08:30:00.155Z,96790.40
2019-05-29T08:32:27.275Z,96791.98
2019-05-29T08:34:54.478Z,96796.88
2019-05-29T08:37:21.606Z,96805.42
2019-05-29T08:39:49.532Z,96806.57
2019-05-29T08:42:23.047Z,96808.86
2019-05-29T08:44:45.811Z,96814.33
2019-05-29T08:47:12.882Z,96814.11
2019-05-29T08:49:41.675Z,96819.12
2019-05-29T08:52:12.365Z,96819.92
2019-05-29T08:54:38.199Z,96822.87
2019-05-29T08:57:05.433Z,96824.46
2019-05-29T08:59:32.542Z,96824.90
2019-05-29T09:01:59.714Z,96826.05
2019-05-29T09:04:27.786Z,96829.57
2019-05-29T09:06:54.823Z,96832.30
2019-05-29T09:09:22.041Z,96832.39
2019-05-29T09:11:50.088Z,96839.63
2019-05-29T09:14:18.027Z,96843.16
2019-05-29T09:16:45.040Z,96846.10
2019-05-29T09:19:12.179Z,96845.97
2019-05-29T09:21:39.115Z,96851.48
2019-05-29T09:24:06.211Z,96856.03
2019-05-29T09:26:33.542Z,96856.91
2019-05-29T09:29:00.565Z,96857.62
2019-05-29T09:31:28.370Z,96862.20
2019-05-29T09:33:55.692Z,96863.14
2019-05-29T09:36:24.593Z,96866.36
2019-05-29T09:38:51.926Z,96869.04
2019-05-29T09:41:19.372Z,96872.26
2019-05-29T09:43:58.175Z,96877.06
2019-05-29T09:46:17.105Z,96870.88
2019-05-29T09:48:49.654Z,96878.13
2019-05-29T09:51:21.371Z,96879.71
2019-05-29T09:53:42.706Z,96884.47
2019-05-29T09:56:09.943Z,96882.16
2019-05-29T09:58:37.070Z,96887.33
2019-05-29T10:01:19.937Z,96888.17
2019-05-29T10:03:33.553Z,96893.00
2019-05-29T10:06:01.537Z,96893.88
2019-05-29T10:08:29.212Z,96900.35
2019-05-29T10:11:01.450Z,96906.05
2019-05-29T10:13:26.871Z,96894.66
2019-05-29T10:15:55.906Z,96905.97
2019-05-29T10:18:31.790Z,96908.63
2019-05-29T10:20:53.078Z,96904.58
2019-05-29T10:23:20.312Z,96908.85
2019-05-29T10:25:49.898Z,96912.16
2019-05-29T10:28:17.335Z,96913.09
2019-05-29T10:30:46.157Z,96912.83
2019-05-29T10:33:13.481Z,96917.07
2019-05-29T10:35:40.502Z,96908.38
2019-05-29T10:38:07.596Z,96923.77
2019-05-29T10:40:34.627Z,96919.02
2019-05-29T10:43:01.666Z,96918.00
2019-05-29T10:45:29.124Z,96921.13
2019-05-29T10:47:56.141Z,96924.43
2019-05-29T10:50:23.189Z,96933.56
2019-05-29T10:52:50.114Z,96937.45
2019-05-29T10:55:21.524Z,96937.45
2019-05-29T10:57:49.148Z,96938.02
2019-05-29T11:00:17.263Z,96940.84
2019-05-29T11:02:46.187Z,96946.94
2019-05-29T11:05:14.570Z,96944.28
2019-05-29T11:07:41.824Z,96948.44
2019-05-29T11:10:13.343Z,96946.50
2019-05-29T11:12:39.704Z,96951.83
2019-05-29T11:15:20.947Z,96951.04
2019-05-29T11:17:37.502Z,96948.66
2019-05-29T11:20:07.800Z,96956.07
2019-05-29T11:22:34.919Z,96960.61
2019-05-29T11:25:22.143Z,96965.07
2019-05-29T11:27:34.542Z,96962.91
2019-05-29T11:30:02.062Z,96964.05
2019-05-29T11:32:29.388Z,96970.27
2019-05-29T11:34:57.531Z,96970.84
2019-05-29T11:37:24.620Z,96964.80
2019-05-29T11:39:52.667Z,96968.02
2019-05-29T11:42:27.328Z,96965.94
2019-05-29T11:44:49.135Z,96962.19
2019-05-29T11:47:16.257Z,96962.19
2019-05-29T11:49:43.387Z,96962.41
2019-05-29T11:52:23.779Z,96960.69
2019-05-29T11:54:41.144Z,96958.39
2019-05-29T11:57:08.212Z,96967.61
2019-05-29T11:59:35.597Z,96965.50
2019-05-29T12:02:03.447Z,96967.75
2019-05-29T12:04:30.783Z,96969.34
2019-05-29T12:06:59.528Z,96971.11
2019-05-29T12:09:32.777Z,96970.18
2019-05-29T12:11:56.236Z,96965.29
2019-05-29T12:14:23.525Z,96974.94
2019-05-29T12:16:51.742Z,96974.94
2019-05-29T12:19:19.079Z,96987.03
2019-05-29T12:21:46.214Z,96986.02
2019-05-29T12:24:13.304Z,96990.91
2019-05-29T12:26:40.372Z,96995.02
2019-05-29T12:29:11.653Z,96994.80
2019-05-29T12:31:36.385Z,96993.08
2019-05-29T12:34:16.920Z,96999.91
2019-05-29T12:36:32.648Z,97000.27
2019-05-29T12:38:59.811Z,97000.05
2019-05-29T12:41:27.009Z,97000.98
2019-05-29T12:43:55.201Z,97003.44
2019-05-29T12:46:22.445Z,97004.53
2019-05-29T12:48:49.579Z,97003.78
2019-05-29T12:51:16.779Z,97000.19
2019-05-29T12:53:43.941Z,97006.58
2019-05-29T12:56:10.996Z,97008.11
2019-05-29T12:58:38.126Z,97012.98
2019-05-29T13:01:05.338Z,97021.63
2019-05-29T13:03:33.735Z,97022.55
2019-05-29T13:06:00.760Z,97021.78
2019-05-29T13:08:27.976Z,97020.77
2019-05-29T13:10:56.209Z,97024.78
2019-05-29T13:13:23.326Z,97022.39
2019-05-29T13:15:50.934Z,97016.86
2019-05-29T13:18:18.255Z,97017.78
2019-05-29T13:20:45.668Z,97017.86
2019-05-29T13:23:13.036Z,97021.06
2019-05-29T13:25:40.272Z,97020.08
2019-05-29T13:28:07.481Z,97022.15
2019-05-29T13:30:34.793Z,97025.67
2019-05-29T13:33:04.725Z,97027.04
2019-05-29T13:35:31.319Z,97029.77
2019-05-29T13:37:59.014Z,97029.77
2019-05-29T13:40:26.061Z,97033.52
2019-05-29T13:42:53.160Z,97032.00
2019-05-29T13:45:21.660Z,97034.38
2019-05-29T13:47:48.760Z,97030.22
2019-05-29T13:50:17.363Z,97040.92
2019-05-29T13:52:44.363Z,97041.05
2019-05-29T13:55:12.323Z,97044.36
2019-05-29T13:57:40.160Z,97047.89
2019-05-29T14:00:30.256Z,97051.98
2019-05-29T14:02:41.626Z,97048.96
2019-05-29T14:05:09.999Z,97053.19
2019-05-29T14:07:37.200Z,97046.92
2019-05-29T14:10:06.407Z,97053.31
2019-05-29T14:12:36.340Z,97051.37
2019-05-29T14:15:08.327Z,97055.12
2019-05-29T14:17:36.167Z,97054.20
2019-05-29T14:20:08.837Z,97058.08
2019-05-29T14:22:36.095Z,97058.08
2019-05-29T14:25:07.457Z,97056.49
2019-05-29T14:27:34.675Z,97056.72
2019-05-29T14:30:08.002Z,97061.95
2019-05-29T14:32:34.681Z,97061.38
2019-05-29T14:35:05.938Z,97063.33
2019-05-29T14:37:33.324Z,97065.03
2019-05-29T14:40:01.532Z,97064.52
2019-05-29T14:42:29.022Z,97072.05
2019-05-29T14:44:56.296Z,97073.19
2019-05-29T14:47:23.795Z,97072.77
2019-05-29T14:49:50.842Z,97081.88
2019-05-29T14:52:17.970Z,97090.66
2019-05-29T14:54:45.120Z,97089.63
2019-05-29T14:57:23.475Z,97092.86
2019-05-29T14:59:41.763Z,97097.66
2019-05-29T15:02:20.954Z,97094.05
2019-05-29T15:04:38.111Z,97104.30
2019-05-29T15:07:05.816Z,97097.52
2019-05-29T15:09:33.200Z,97098.36
2019-05-29T15:12:00.669Z,97097.77
2019-05-29T15:14:28.384Z,97095.83
2019-05-29T15:16:55.964Z,97101.66
2019-05-29T15:19:23.134Z,97105.95
2019-05-29T15:21:50.332Z,97105.19
2019-05-29T15:24:17.542Z,97108.03
2019-05-29T15:26:44.796Z,97109.17
2019-05-29T15:29:14.424Z,97090.23
2019-05-29T15:31:40.784Z,97090.23
2019-05-29T15:34:08.175Z,97111.45
2019-05-29T15:36:35.490Z,97116.91
2019-05-29T15:39:08.512Z,97122.60
2019-05-29T15:41:35.873Z,97119.75
2019-05-29T15:44:03.590Z,97126.23
2019-05-29T15:46:30.525Z,97128.97
2019-05-29T15:48:57.722Z,97122.83
2019-05-29T15:51:24.777Z,97128.55
2019-05-29T15:53:51.917Z,97131.28
2019-05-29T15:56:27.438Z,97128.55
2019-05-29T15:58:48.109Z,97131.70
2019-05-29T16:01:17.957Z,97137.63
2019-05-29T16:03:45.188Z,97133.41
2019-05-29T16:06:12.121Z,97144.41
2019-05-29T16:08:39.265Z,97144.18
2019-05-29T16:11:06.309Z,97153.05
2019-05-29T16:13:33.791Z,97153.05
2019-05-29T16:16:01.207Z,97159.66
2019-05-29T16:18:29.782Z,97157.19
2019-05-29T16:20:57.041Z,97163.11
2019-05-29T16:23:35.332Z,97156.06
2019-05-29T16:25:53.307Z,97161.55
2019-05-29T16:28:21.451Z,97163.60
2019-05-29T16:30:48.996Z,97163.60
2019-05-29T16:33:17.251Z,97167.58
2019-05-29T16:35:44.282Z,97164.51
2019-05-29T16:38:11.578Z,97162.92
2019-05-29T16:40:38.595Z,97168.03
2019-05-29T16:43:05.736Z,97166.09
2019-05-29T16:45:32.836Z,97162.80
2019-05-29T16:47:59.972Z,97159.13
2019-05-29T16:50:27.035Z,97159.27
2019-05-29T16:52:54.141Z,97162.68
2019-05-29T16:55:21.380Z,97160.38
2019-05-29T16:57:48.424Z,97169.02
2019-05-29T17:00:17.605Z,97169.70
2019-05-29T17:02:45.151Z,97171.30
2019-05-29T17:05:13.529Z,97175.81
2019-05-29T17:07:40.760Z,97171.71
2019-05-29T17:10:08.670Z,97167.84
2019-05-29T17:12:35.816Z,97163.75
2019-05-29T17:15:09.751Z,97162.42
2019-05-29T17:17:37.131Z,97168.76
2019-05-29T17:20:06.752Z,97170.92
2019-05-29T17:22:33.705Z,97167.62
2019-05-29T17:25:00.621Z,97173.53
2019-05-29T17:27:27.766Z,97177.28
2019-05-29T17:29:55.004Z,97179.45
2019-05-29T17:32:23.216Z,97182.41
2019-05-29T17:34:50.332Z,97184.34
2019-05-29T17:37:17.475Z,97179.10
2019-05-29T17:39:44.733Z,97184.00
2019-05-29T17:42:12.899Z,97189.45
2019-05-29T17:44:40.008Z,97188.44
2019-05-29T17:47:07.356Z,97195.48
2019-05-29T17:49:34.862Z,97197.42
2019-05-29T17:52:21.822Z,97193.33
2019-05-29T17:54:49.187Z,97197.20
2019-05-29T17:57:16.721Z,97196.41
2019-05-29T17:59:45.351Z,97205.39
2019-05-29T18:02:12.481Z,97205.96
2019-05-29T18:04:39.571Z,97206.30
2019-05-29T18:07:06.761Z,97209.94
2019-05-29T18:09:33.845Z,97211.31
2019-05-29T18:12:00.977Z,97217.00
2019-05-29T18:14:28.103Z,97218.94
2019-05-29T18:16:55.129Z,97217.80
2019-05-29T18:19:22.069Z,97209.94
2019-05-29T18:21:49.114Z,97215.17
2019-05-29T18:24:16.047Z,97215.09
2019-05-29T18:26:47.319Z,97219.98
2019-05-29T18:29:12.119Z,97223.06
2019-05-29T18:31:39.217Z,97223.86
2019-05-29T18:34:06.335Z,97226.81
2019-05-29T18:36:33.498Z,97236.38
2019-05-29T18:39:00.647Z,97238.30
2019-05-29T18:41:28.521Z,97243.20
2019-05-29T18:43:55.999Z,97242.41
2019-05-29T18:46:23.293Z,97253.66
2019-05-29T18:48:50.527Z,97247.75
2019-05-29T18:51:17.626Z,97254.14
2019-05-29T18:53:44.795Z,97256.65
2019-05-29T18:56:11.706Z,97256.42
2019-05-29T18:58:38.827Z,97264.61
2019-05-29T19:01:06.195Z,97265.41
2019-05-29T19:03:33.535Z,97263.02
2019-05-29T19:06:00.871Z,97269.58
2019-05-29T19:08:29.706Z,97261.16
2019-05-29T19:10:57.130Z,97266.39
2019-05-29T19:13:24.093Z,97273.22
2019-05-29T19:15:51.110Z,97279.05
2019-05-29T19:18:19.386Z,97280.41
2019-05-29T19:20:46.661Z,97279.84
2019-05-29T19:23:14.229Z,97254.16
2019-05-29T19:25:41.382Z,97274.59
2019-05-29T19:28:08.705Z,97280.62
2019-05-29T19:30:35.665Z,97280.76
2019-05-29T19:33:03.075Z,97287.80
2019-05-29T19:35:30.105Z,97278.73
2019-05-29T19:37:57.226Z,97281.00
2019-05-29T19:40:24.361Z,97285.42
2019-05-29T19:42:54.482Z,97288.72
2019-05-29T19:45:20.834Z,97282.13
2019-05-29T19:47:47.949Z,97288.16
2019-05-29T19:50:15.684Z,97297.38
2019-05-29T19:52:42.611Z,97302.27
2019-05-29T19:55:10.384Z,97307.95
2019-05-29T19:57:52.527Z,97308.18
2019-05-29T20:00:09.225Z,97311.48
2019-05-29T20:02:38.057Z,97314.44
2019-05-29T20:05:06.338Z,97314.44
2019-05-29T20:07:33.380Z,97319.33
2019-05-29T20:10:00.528Z,97317.63
2019-05-29T20:12:27.691Z,97326.02
2019-05-29T20:14:55.232Z,97318.99
2019-05-29T20:17:22.342Z,97316.83
2019-05-29T20:19:49.660Z,97322.86
2019-05-29T20:22:16.795Z,97322.97
2019-05-29T20:24:43.970Z,97319.89
2019-05-29T20:27:11.232Z,97332.18
2019-05-29T20:29:38.558Z,97336.27
2019-05-29T20:32:05.954Z,97333.55
2019-05-29T20:34:32.967Z,97337.64
2019-05-29T20:37:00.208Z,97313.30
2019-05-29T20:39:27.310Z,97333.31
2019-05-29T20:41:54.511Z,97341.16
2019-05-29T20:44:21.439Z,97343.66
2019-05-29T20:46:48.485Z,97342.87
2019-05-29T20:49:15.702Z,97346.96
2019-05-29T20:51:42.940Z,97327.99
2019-05-29T20:54:10.074Z,97327.99
2019-05-29T20:56:37.773Z,97352.19
2019-05-29T20:59:05.048Z,97350.83
2019-05-29T21:01:32.199Z,97353.55
2019-05-29T21:03:59.290Z,97357.42
2019-05-29T21:06:26.347Z,97360.15
2019-05-29T21:08:53.680Z,97356.53
2019-05-29T21:11:20.771Z,97356.53
2019-05-29T21:13:47.798Z,97362.22
2019-05-29T21:16:14.913Z,97360.85
2019-05-29T21:18:42.247Z,97360.62
2019-05-29T21:21:09.304Z,97358.80
2019-05-29T21:23:36.431Z,97358.56
2019-05-29T21:26:04.275Z,97356.63
2019-05-29T21:28:40.880Z,97362.43
2019-05-29T21:31:01.137Z,97355.38
2019-05-29T21:33:28.325Z,97355.17
2019-05-29T21:35:55.700Z,97360.97
2019-05-29T21:38:22.705Z,97365.63
2019-05-29T21:40:50.133Z,97363.00
2019-05-29T21:43:17.172Z,97367.66
2019-05-29T21:45:45.282Z,97365.50
2019-05-29T21:48:12.484Z,97372.32
2019-05-29T21:50:39.739Z,97371.52
2019-05-29T21:53:06.842Z,97373.22
2019-05-29T21:55:33.887Z,97372.09
2019-05-29T21:58:00.913Z,97372.66
2019-05-29T22:00:30.611Z,97369.13
2019-05-29T22:02:57.852Z,97367.20
2019-05-29T22:05:25.385Z,97367.20
2019-05-29T22:07:52.608Z,97371.52
2019-05-29T22:10:19.719Z,97374.59
2019-05-29T22:12:46.973Z,97374.59
2019-05-29T22:15:14.259Z,97370.50
2019-05-29T22:17:41.201Z,97366.77
2019-05-29T22:20:08.906Z,97372.22
2019-05-29T22:22:35.965Z,97371.86
2019-05-29T22:25:06.766Z,97372.89
2019-05-29T22:27:35.886Z,97377.78
2019-05-29T22:30:05.615Z,97351.30
2019-05-29T22:32:32.668Z,97376.98
2019-05-29T22:34:59.809Z,97381.88
2019-05-29T22:37:26.766Z,97385.17
2019-05-29T22:39:53.729Z,97361.75
2019-05-29T22:42:20.927Z,97386.53
2019-05-29T22:44:48.201Z,97386.53
2019-05-29T22:47:15.222Z,97382.44
2019-05-29T22:49:42.234Z,97379.48
2019-05-29T22:52:09.273Z,97353.57
2019-05-29T22:54:36.419Z,97353.57
2019-05-29T22:57:05.774Z,97372.22
2019-05-29T22:59:32.891Z,97377.91
2019-05-29T23:02:00.465Z,97365.61
2019-05-29T23:04:27.458Z,97375.84
2019-05-29T23:06:56.318Z,97379.71
2019-05-29T23:09:23.735Z,97378.48
2019-05-29T23:11:52.082Z,97382.67
2019-05-29T23:14:19.322Z,97386.77
2019-05-29T23:16:46.266Z,97386.77
2019-05-29T23:19:13.806Z,97361.42
2019-05-29T23:21:40.828Z,97383.23
2019-05-29T23:24:08.065Z,97378.91
2019-05-29T23:26:35.287Z,97381.08
2019-05-29T23:29:03.925Z,97382.44
2019-05-29T23:31:31.363Z,97376.98
2019-05-29T23:33:58.999Z,97374.82
2019-05-29T23:36:26.186Z,97353.11
2019-05-29T23:38:53.417Z,97370.63
2019-05-29T23:41:20.887Z,97371.53
2019-05-29T23:43:47.839Z,97375.16
2019-05-29T23:46:14.747Z,97371.43
2019-05-29T23:48:42.063Z,97378.02
2019-05-29T23:51:09.311Z,97376.77
2019-05-29T23:53:36.818Z,97376.77
2019-05-29T23:56:04.073Z,97373.00
2019-05-29T23:58:31.232Z,97373.00
